createdAt,value
2023-03-17T00:01:44.840Z,21.18
2023-03-17T00:04:12.551Z,21.21
2023-03-17T00:06:40.679Z,21.12
2023-03-17T00:09:18.396Z,21.20
2023-03-17T00:11:46.198Z,21.15
2023-03-17T00:14:14.190Z,21.17
2023-03-17T00:16:43.139Z,21.17
2023-03-17T00:19:42.371Z,21.17
2023-03-17T00:22:17.776Z,21.16
2023-03-17T00:24:44.705Z,21.12
2023-03-17T00:27:13.264Z,21.14
2023-03-17T00:29:40.534Z,21.13
2023-03-17T00:32:17.033Z,21.09
2023-03-17T00:34:44.771Z,21.11
2023-03-17T00:37:12.831Z,21.10
2023-03-17T00:39:40.041Z,21.09
2023-03-17T00:42:07.074Z,21.04
2023-03-17T00:44:34.579Z,21.07
2023-03-17T00:47:01.903Z,21.05
2023-03-17T00:49:29.052Z,21.05
2023-03-17T00:51:55.646Z,21.06
2023-03-17T00:54:22.401Z,21.05
2023-03-17T00:56:52.672Z,21.05
2023-03-17T00:59:35.370Z,20.96
2023-03-17T01:02:02.113Z,20.95
2023-03-17T01:04:32.195Z,21.02
2023-03-17T01:06:59.308Z,21.01
2023-03-17T01:09:27.619Z,21.00
2023-03-17T01:11:55.521Z,21.01
2023-03-17T01:14:22.556Z,21.00
2023-03-17T01:16:49.325Z,20.99
2023-03-17T01:19:16.736Z,20.97
2023-03-17T01:21:43.302Z,20.99
2023-03-17T01:24:10.734Z,20.93
2023-03-17T01:26:38.256Z,20.96
2023-03-17T01:29:06.279Z,20.95
2023-03-17T01:31:32.935Z,20.93
2023-03-17T01:33:59.960Z,20.92
2023-03-17T01:36:26.508Z,20.90
2023-03-17T01:38:53.805Z,20.90
2023-03-17T01:41:20.737Z,20.90
2023-03-17T01:43:47.633Z,20.89
2023-03-17T01:46:28.092Z,20.88
2023-03-17T01:49:16.026Z,20.88
2023-03-17T01:52:15.776Z,20.87
2023-03-17T01:54:50.320Z,20.84
2023-03-17T01:57:16.872Z,20.83
2023-03-17T01:59:51.353Z,20.78
2023-03-17T02:02:23.451Z,20.83
2023-03-17T02:04:52.986Z,20.73
2023-03-17T02:07:22.192Z,20.68
2023-03-17T02:09:49.586Z,20.79
2023-03-17T02:12:22.244Z,20.78
2023-03-17T02:14:50.026Z,20.78
2023-03-17T02:17:16.574Z,20.73
2023-03-17T02:19:43.678Z,20.76
2023-03-17T02:22:11.472Z,20.69
2023-03-17T02:24:45.927Z,20.76
2023-03-17T02:27:31.576Z,20.75
2023-03-17T02:29:59.787Z,20.75
2023-03-17T02:32:26.942Z,20.74
2023-03-17T02:34:55.281Z,20.69
2023-03-17T02:37:21.950Z,20.73
2023-03-17T02:39:48.551Z,20.72
2023-03-17T02:42:15.292Z,20.71
2023-03-17T02:44:42.078Z,20.70
2023-03-17T02:47:08.761Z,20.71
2023-03-17T02:49:37.320Z,20.69
2023-03-17T02:52:05.157Z,20.69
2023-03-17T02:54:32.106Z,20.69
2023-03-17T02:56:59.841Z,20.68
2023-03-17T02:59:27.007Z,20.67
2023-03-17T03:01:54.649Z,20.63
2023-03-17T03:04:21.317Z,20.66
2023-03-17T03:06:48.315Z,20.66
2023-03-17T03:09:17.679Z,20.63
2023-03-17T03:11:45.109Z,20.63
2023-03-17T03:14:11.942Z,20.63
2023-03-17T03:16:39.801Z,20.62
2023-03-17T03:19:07.826Z,20.58
2023-03-17T03:21:35.112Z,20.60
2023-03-17T03:24:01.667Z,20.60
2023-03-17T03:26:28.421Z,20.51
2023-03-17T03:28:57.278Z,20.45
2023-03-17T03:31:24.697Z,20.54
2023-03-17T03:33:51.965Z,20.47
2023-03-17T03:36:18.898Z,20.57
2023-03-17T03:38:45.678Z,20.55
2023-03-17T03:41:13.063Z,20.43
2023-03-17T03:43:39.831Z,20.53
2023-03-17T03:46:06.908Z,20.53
2023-03-17T03:48:33.592Z,20.51
2023-03-17T03:51:02.149Z,20.43
2023-03-17T03:53:29.279Z,20.51
2023-03-17T03:55:56.474Z,20.51
2023-03-17T03:58:23.319Z,20.40
2023-03-17T04:00:50.064Z,20.49
2023-03-17T04:03:17.025Z,20.45
2023-03-17T04:05:43.726Z,20.38
2023-03-17T04:08:11.287Z,20.49
2023-03-17T04:10:38.035Z,20.46
2023-03-17T04:13:04.960Z,20.45
2023-03-17T04:15:31.845Z,20.44
2023-03-17T04:17:58.355Z,20.44
2023-03-17T04:20:24.968Z,20.43
2023-03-17T04:22:51.813Z,20.42
2023-03-17T04:25:18.608Z,20.40
2023-03-17T04:27:45.199Z,20.40
2023-03-17T04:30:13.901Z,20.39
2023-03-17T04:32:41.586Z,20.38
2023-03-17T04:35:12.160Z,20.29
2023-03-17T04:37:38.996Z,20.30
2023-03-17T04:40:12.148Z,20.35
2023-03-17T04:42:39.190Z,20.36
2023-03-17T04:45:06.881Z,20.36
2023-03-17T04:47:34.009Z,20.25
2023-03-17T04:50:01.400Z,20.34
2023-03-17T04:52:28.422Z,20.32
2023-03-17T04:54:55.037Z,20.33
2023-03-17T04:57:22.306Z,20.08
2023-03-17T04:59:48.859Z,20.34
2023-03-17T05:02:15.490Z,20.33
2023-03-17T05:04:42.794Z,20.32
2023-03-17T05:07:09.430Z,20.26
2023-03-17T05:09:36.055Z,20.31
2023-03-17T05:12:02.753Z,20.20
2023-03-17T05:14:29.520Z,20.18
2023-03-17T05:16:56.230Z,20.26
2023-03-17T05:19:22.994Z,20.29
2023-03-17T05:21:49.624Z,20.19
2023-03-17T05:24:16.154Z,20.30
2023-03-17T05:26:42.823Z,20.29
2023-03-17T05:29:10.039Z,20.13
2023-03-17T05:31:37.402Z,20.29
2023-03-17T05:34:04.242Z,20.24
2023-03-17T05:36:32.024Z,20.17
2023-03-17T05:38:58.568Z,20.21
2023-03-17T05:41:25.679Z,20.29
2023-03-17T05:43:52.441Z,20.27
2023-03-17T05:46:20.418Z,20.27
2023-03-17T05:48:47.514Z,20.26
2023-03-17T05:51:14.415Z,20.09
2023-03-17T05:53:41.684Z,20.27
2023-03-17T05:56:09.264Z,20.09
2023-03-17T05:58:36.567Z,20.27
2023-03-17T06:01:03.181Z,20.20
2023-03-17T06:03:29.852Z,20.29
2023-03-17T06:05:58.926Z,20.28
2023-03-17T06:08:25.738Z,20.29
2023-03-17T06:10:52.606Z,20.30
2023-03-17T06:13:19.138Z,20.29
2023-03-17T06:15:49.505Z,20.23
2023-03-17T06:18:16.140Z,20.29
2023-03-17T06:20:42.872Z,20.27
2023-03-17T06:23:09.520Z,20.27
2023-03-17T06:25:37.028Z,20.18
2023-03-17T06:28:05.440Z,20.23
2023-03-17T06:30:33.753Z,20.27
2023-03-17T06:33:01.690Z,20.24
2023-03-17T06:35:29.441Z,20.28
2023-03-17T06:37:56.320Z,20.14
2023-03-17T06:40:22.936Z,20.28
2023-03-17T06:42:49.605Z,19.85
2023-03-17T06:45:16.323Z,20.10
2023-03-17T06:47:43.528Z,20.28
2023-03-17T06:50:13.457Z,20.28
2023-03-17T06:52:40.840Z,20.28
2023-03-17T06:55:08.546Z,20.28
2023-03-17T06:57:35.750Z,20.19
2023-03-17T07:00:03.428Z,20.27
2023-03-17T07:02:30.081Z,20.24
2023-03-17T07:04:58.168Z,20.20
2023-03-17T07:07:25.126Z,20.22
2023-03-17T07:09:52.768Z,20.26
2023-03-17T07:12:20.103Z,20.24
2023-03-17T07:14:46.742Z,20.24
2023-03-17T07:17:14.911Z,20.16
2023-03-17T07:19:41.696Z,20.22
2023-03-17T07:22:11.844Z,20.23
2023-03-17T07:24:39.607Z,20.25
2023-03-17T07:27:06.300Z,20.25
2023-03-17T07:29:33.947Z,20.25
2023-03-17T07:32:01.415Z,20.25
2023-03-17T07:34:28.431Z,20.10
2023-03-17T07:36:55.540Z,20.20
2023-03-17T07:39:22.435Z,20.21
2023-03-17T07:41:57.797Z,20.24
2023-03-17T07:44:25.937Z,20.14
2023-03-17T07:46:52.572Z,20.24
2023-03-17T07:49:30.755Z,20.08
2023-03-17T07:52:08.974Z,20.24
2023-03-17T07:54:37.005Z,20.00
2023-03-17T07:57:05.151Z,20.19
2023-03-17T07:59:32.355Z,20.24
2023-03-17T08:02:01.186Z,20.25
2023-03-17T08:04:28.332Z,20.25
2023-03-17T08:06:55.005Z,20.26
2023-03-17T08:09:24.891Z,20.24
2023-03-17T08:11:51.606Z,20.26
2023-03-17T08:14:18.644Z,20.24
2023-03-17T08:19:10.764Z,20.19
2023-03-17T08:21:39.064Z,20.26
2023-03-17T08:24:06.074Z,20.25
2023-03-17T08:26:32.724Z,20.26
2023-03-17T08:28:59.906Z,20.16
2023-03-17T08:31:26.600Z,20.25
2023-03-17T08:33:54.442Z,20.22
2023-03-17T08:36:21.842Z,20.17
2023-03-17T08:38:48.768Z,20.26
2023-03-17T08:41:18.962Z,20.24
2023-03-17T08:43:45.979Z,20.25
2023-03-17T08:46:24.974Z,20.25
2023-03-17T08:48:54.058Z,20.18
2023-03-17T08:51:24.223Z,20.26
2023-03-17T08:53:52.043Z,20.26
2023-03-17T08:56:19.193Z,20.27
2023-03-17T08:58:47.056Z,20.23
2023-03-17T09:01:17.661Z,20.20
2023-03-17T09:03:45.126Z,20.28
2023-03-17T09:06:12.284Z,20.28
2023-03-17T09:08:44.729Z,20.27
2023-03-17T09:11:14.741Z,20.30
2023-03-17T09:13:41.544Z,20.29
2023-03-17T09:16:09.020Z,20.31
2023-03-17T09:18:36.413Z,20.32
2023-03-17T09:21:03.518Z,20.32
2023-03-17T09:23:30.883Z,20.34
2023-03-17T09:25:57.657Z,20.32
2023-03-17T09:28:24.691Z,20.37
2023-03-17T09:30:51.535Z,20.37
2023-03-17T09:33:18.954Z,20.29
2023-03-17T09:35:45.580Z,20.41
2023-03-17T09:38:12.911Z,20.26
2023-03-17T09:40:51.554Z,20.36
2023-03-17T09:43:39.445Z,20.45
2023-03-17T09:46:30.622Z,20.46
2023-03-17T09:49:09.309Z,20.47
2023-03-17T09:51:36.627Z,20.47
2023-03-17T09:54:31.422Z,20.50
2023-03-17T09:57:06.523Z,20.49
2023-03-17T09:59:42.247Z,20.53
2023-03-17T10:02:28.396Z,20.54
2023-03-17T10:04:56.102Z,20.54
2023-03-17T10:07:33.993Z,20.56
2023-03-17T10:10:03.459Z,20.56
2023-03-17T10:12:36.102Z,20.56
2023-03-17T10:15:18.481Z,20.61
2023-03-17T10:17:46.137Z,20.61
2023-03-17T10:20:27.186Z,20.65
2023-03-17T10:22:59.274Z,20.66
2023-03-17T10:25:29.768Z,20.69
2023-03-17T10:27:59.986Z,20.70
2023-03-17T10:30:27.376Z,20.67
2023-03-17T10:32:58.776Z,20.73
2023-03-17T10:37:47.698Z,20.72
2023-03-17T10:40:25.924Z,20.32
2023-03-17T10:43:07.851Z,20.72
2023-03-17T10:45:40.895Z,20.71
2023-03-17T10:48:09.743Z,20.73
2023-03-17T10:50:38.097Z,20.73
2023-03-17T10:53:08.359Z,20.76
2023-03-17T10:55:37.632Z,20.76
2023-03-17T10:58:14.266Z,20.78
2023-03-17T11:01:00.251Z,20.80
2023-03-17T11:03:35.847Z,20.81
2023-03-17T11:06:05.606Z,20.83
2023-03-17T11:08:35.554Z,20.82
2023-03-17T11:11:10.357Z,20.84
2023-03-17T11:13:37.339Z,20.77
2023-03-17T11:16:15.660Z,20.87
2023-03-17T11:18:42.888Z,20.89
2023-03-17T11:21:14.292Z,20.90
2023-03-17T11:23:55.012Z,20.91
2023-03-17T11:26:32.059Z,20.92
2023-03-17T11:29:27.774Z,20.93
2023-03-17T11:31:57.481Z,20.94
2023-03-17T11:34:52.543Z,20.96
2023-03-17T11:37:50.238Z,20.98
2023-03-17T11:40:46.112Z,20.99
2023-03-17T11:43:21.950Z,20.99
2023-03-17T11:45:54.835Z,21.00
2023-03-17T11:48:47.066Z,21.01
2023-03-17T11:51:27.502Z,21.04
2023-03-17T11:54:07.971Z,21.04
2023-03-17T11:56:46.237Z,21.06
2023-03-17T11:59:38.387Z,21.07
2023-03-17T12:02:07.853Z,21.09
2023-03-17T12:04:51.257Z,21.12
2023-03-17T12:07:17.956Z,21.13
2023-03-17T12:09:50.781Z,21.06
2023-03-17T12:12:28.289Z,21.17
2023-03-17T12:14:57.855Z,21.10
2023-03-17T12:17:34.537Z,21.18
2023-03-17T12:20:19.966Z,21.22
2023-03-17T12:23:11.046Z,21.25
2023-03-17T12:25:45.302Z,21.25
2023-03-17T12:28:23.150Z,21.24
2023-03-17T12:30:55.355Z,21.30
2023-03-17T12:33:29.641Z,21.31
2023-03-17T12:35:58.861Z,21.32
2023-03-17T12:38:38.225Z,21.34
2023-03-17T12:41:31.480Z,21.36
2023-03-17T12:44:07.905Z,21.36
2023-03-17T12:46:52.204Z,21.39
2023-03-17T12:49:52.706Z,21.40
2023-03-17T12:52:48.001Z,21.39
2023-03-17T12:55:17.610Z,21.44
2023-03-17T12:57:46.873Z,21.40
2023-03-17T13:00:29.556Z,21.47
2023-03-17T13:03:23.421Z,21.48
2023-03-17T13:05:55.107Z,21.49
2023-03-17T13:08:28.207Z,21.50
2023-03-17T13:11:14.648Z,21.51
2023-03-17T13:13:44.507Z,21.53
2023-03-17T13:16:39.315Z,21.54
2023-03-17T13:19:20.084Z,21.55
2023-03-17T13:22:03.619Z,21.56
2023-03-17T13:24:46.880Z,21.56
2023-03-17T13:27:34.879Z,21.57
2023-03-17T13:30:37.624Z,21.58
2023-03-17T13:33:10.722Z,21.58
2023-03-17T13:36:04.081Z,21.58
2023-03-17T13:39:04.884Z,21.59
2023-03-17T13:41:52.009Z,21.59
2023-03-17T13:44:25.519Z,21.59
2023-03-17T13:46:53.065Z,21.59
2023-03-17T13:49:19.593Z,21.60
2023-03-17T13:52:01.675Z,21.61
2023-03-17T13:54:28.664Z,21.60
2023-03-17T13:57:00.068Z,21.54
2023-03-17T13:59:55.609Z,21.61
2023-03-17T14:02:25.297Z,21.60
2023-03-17T14:04:55.803Z,21.62
2023-03-17T14:07:27.118Z,21.62
2023-03-17T14:10:00.020Z,21.64
2023-03-17T14:13:02.576Z,21.66
2023-03-17T14:15:29.637Z,21.67
2023-03-17T14:18:08.776Z,21.68
2023-03-17T14:20:36.437Z,21.69
2023-03-17T14:23:04.476Z,21.61
2023-03-17T14:25:35.471Z,21.69
2023-03-17T14:28:09.341Z,21.73
2023-03-17T14:30:39.568Z,21.73
2023-03-17T14:33:13.186Z,21.75
2023-03-17T14:35:43.615Z,21.76
2023-03-17T14:38:26.836Z,21.77
2023-03-17T14:41:15.453Z,21.79
2023-03-17T14:43:44.240Z,21.78
2023-03-17T14:46:18.554Z,21.81
2023-03-17T14:48:48.891Z,21.82
2023-03-17T14:51:25.166Z,21.79
2023-03-17T14:53:54.501Z,21.85
2023-03-17T14:56:24.124Z,21.74
2023-03-17T14:58:52.382Z,21.88
2023-03-17T15:01:36.463Z,21.88
2023-03-17T15:04:24.866Z,21.87
2023-03-17T15:06:54.609Z,21.90
2023-03-17T15:09:34.296Z,21.92
2023-03-17T15:12:24.626Z,21.92
2023-03-17T15:14:54.464Z,21.92
2023-03-17T15:17:26.349Z,21.92
2023-03-17T15:19:58.188Z,21.94
2023-03-17T15:22:44.718Z,21.94
2023-03-17T15:25:17.693Z,21.95
2023-03-17T15:27:45.549Z,21.95
2023-03-17T15:30:16.527Z,21.95
2023-03-17T15:32:45.261Z,21.96
2023-03-17T15:35:13.984Z,21.97
2023-03-17T15:37:41.578Z,21.91
2023-03-17T15:40:10.705Z,21.96
2023-03-17T15:42:39.764Z,21.98
2023-03-17T15:45:07.815Z,21.88
2023-03-17T15:47:39.171Z,21.99
2023-03-17T15:50:16.711Z,22.00
2023-03-17T15:52:44.656Z,22.00
2023-03-17T15:55:22.879Z,22.00
2023-03-17T15:57:55.067Z,22.00
2023-03-17T16:00:24.182Z,21.95
2023-03-17T16:02:56.217Z,21.98
2023-03-17T16:05:29.403Z,21.99
2023-03-17T16:07:58.661Z,21.99
2023-03-17T16:10:32.239Z,21.96
2023-03-17T16:12:59.426Z,21.96
2023-03-17T16:15:29.334Z,21.97
2023-03-17T16:17:59.242Z,21.98
2023-03-17T16:20:31.365Z,21.91
2023-03-17T16:23:04.694Z,21.95
2023-03-17T16:25:32.466Z,21.94
2023-03-17T16:28:01.660Z,21.95
2023-03-17T16:30:31.491Z,21.93
2023-03-17T16:33:02.269Z,21.93
2023-03-17T16:35:29.359Z,21.92
2023-03-17T16:37:56.253Z,21.76
2023-03-17T16:40:29.092Z,21.91
2023-03-17T16:42:55.835Z,21.83
2023-03-17T16:45:34.067Z,21.89
2023-03-17T16:48:04.024Z,21.88
2023-03-17T16:50:33.608Z,21.87
2023-03-17T16:53:00.474Z,21.86
2023-03-17T16:55:30.477Z,21.85
2023-03-17T16:58:00.932Z,21.80
2023-03-17T17:00:29.934Z,21.83
2023-03-17T17:02:58.165Z,21.82
2023-03-17T17:05:28.199Z,21.82
2023-03-17T17:07:56.996Z,21.82
2023-03-17T17:10:25.904Z,21.77
2023-03-17T17:12:53.004Z,21.80
2023-03-17T17:15:21.708Z,21.79
2023-03-17T17:18:01.328Z,21.79
2023-03-17T17:20:31.816Z,21.78
2023-03-17T17:23:00.558Z,21.77
2023-03-17T17:25:28.108Z,21.75
2023-03-17T17:27:56.353Z,21.76
2023-03-17T17:30:28.038Z,21.74
2023-03-17T17:32:59.999Z,21.74
2023-03-17T17:35:32.787Z,21.61
2023-03-17T17:38:01.477Z,21.61
2023-03-17T17:40:32.224Z,21.67
2023-03-17T17:42:59.558Z,21.67
2023-03-17T17:45:26.491Z,21.67
2023-03-17T17:47:53.123Z,21.51
2023-03-17T17:50:26.041Z,21.60
2023-03-17T17:52:52.874Z,21.57
2023-03-17T17:55:22.073Z,21.46
2023-03-17T17:57:52.299Z,21.47
2023-03-17T18:00:19.732Z,21.58
2023-03-17T18:02:46.344Z,21.60
2023-03-17T18:05:13.433Z,21.60
2023-03-17T18:07:40.596Z,21.59
2023-03-17T18:10:07.980Z,21.48
2023-03-17T18:12:37.974Z,21.59
2023-03-17T18:15:05.490Z,21.48
2023-03-17T18:17:32.624Z,21.40
2023-03-17T18:20:00.273Z,21.59
2023-03-17T18:22:27.864Z,21.43
2023-03-17T18:24:56.474Z,21.55
2023-03-17T18:27:23.722Z,21.55
2023-03-17T18:29:51.135Z,21.58
2023-03-17T18:32:17.833Z,21.58
2023-03-17T18:34:47.968Z,21.53
2023-03-17T18:37:17.635Z,21.58
2023-03-17T18:39:48.824Z,21.58
2023-03-17T18:42:19.791Z,21.58
2023-03-17T18:44:46.476Z,21.58
2023-03-17T18:47:15.846Z,21.52
2023-03-17T18:49:44.109Z,21.58
2023-03-17T18:52:13.317Z,21.40
2023-03-17T18:54:40.419Z,21.34
2023-03-17T18:57:08.436Z,21.47
2023-03-17T18:59:34.979Z,21.51
2023-03-17T19:02:02.553Z,21.58
2023-03-17T19:04:30.300Z,21.59
2023-03-17T19:06:57.981Z,21.59
2023-03-17T19:09:24.568Z,21.55
2023-03-17T19:11:51.319Z,21.58
2023-03-17T19:14:17.975Z,21.55
2023-03-17T19:16:45.021Z,21.48
2023-03-17T19:19:11.756Z,21.60
2023-03-17T19:21:38.477Z,21.60
2023-03-17T19:24:05.537Z,21.60
2023-03-17T19:26:34.094Z,21.60
2023-03-17T19:29:03.620Z,21.60
2023-03-17T19:31:30.298Z,21.60
2023-03-17T19:34:01.921Z,21.60
2023-03-17T19:36:36.085Z,21.60
2023-03-17T19:39:07.206Z,21.59
2023-03-17T19:41:37.870Z,21.57
2023-03-17T19:44:10.597Z,21.44
2023-03-17T19:46:38.044Z,21.59
2023-03-17T19:49:04.931Z,21.59
2023-03-17T19:51:33.174Z,21.58
2023-03-17T19:54:00.566Z,21.58
2023-03-17T19:56:27.938Z,21.49
2023-03-17T19:58:55.766Z,21.59
2023-03-17T20:01:23.108Z,21.55
2023-03-17T20:03:52.451Z,21.43
2023-03-17T20:06:19.259Z,21.58
2023-03-17T20:08:46.080Z,21.59
2023-03-17T20:11:13.454Z,21.41
2023-03-17T20:13:42.058Z,21.59
2023-03-17T20:16:09.253Z,21.52
2023-03-17T20:18:39.364Z,21.61
2023-03-17T20:21:15.844Z,21.58
2023-03-17T20:23:45.377Z,21.54
2023-03-17T20:26:20.118Z,21.60
2023-03-17T20:28:52.621Z,21.62
2023-03-17T20:31:19.522Z,21.58
2023-03-17T20:33:46.305Z,21.64
2023-03-17T20:36:18.831Z,21.64
2023-03-17T20:38:45.685Z,21.65
2023-03-17T20:41:15.327Z,21.55
2023-03-17T20:43:45.190Z,21.66
2023-03-17T20:46:23.054Z,21.66
2023-03-17T20:49:01.291Z,21.52
2023-03-17T20:51:30.990Z,21.62
2023-03-17T20:53:58.336Z,21.68
2023-03-17T20:56:26.563Z,21.68
2023-03-17T20:58:53.550Z,21.69
2023-03-17T21:01:21.764Z,21.69
2023-03-17T21:03:49.653Z,21.69
2023-03-17T21:06:23.078Z,21.59
2023-03-17T21:08:55.534Z,21.71
2023-03-17T21:11:26.939Z,21.71
2023-03-17T21:13:56.152Z,21.71
2023-03-17T21:16:25.603Z,21.70
2023-03-17T21:18:52.652Z,21.70
2023-03-17T21:21:23.066Z,21.70
2023-03-17T21:23:56.228Z,21.69
2023-03-17T21:26:26.086Z,21.70
2023-03-17T21:28:52.691Z,21.58
2023-03-17T21:31:21.685Z,21.69
2023-03-17T21:33:50.503Z,21.68
2023-03-17T21:36:18.095Z,21.68
2023-03-17T21:38:46.048Z,21.68
2023-03-17T21:41:29.318Z,21.68
2023-03-17T21:43:56.388Z,21.63
2023-03-17T21:46:23.346Z,21.62
2023-03-17T21:48:50.143Z,21.68
2023-03-17T21:51:16.804Z,21.69
2023-03-17T21:53:43.616Z,21.68
2023-03-17T21:56:12.430Z,21.68
2023-03-17T21:58:40.141Z,21.61
2023-03-17T22:01:07.553Z,21.63
2023-03-17T22:03:36.587Z,21.55
2023-03-17T22:06:05.381Z,21.67
2023-03-17T22:08:33.257Z,21.68
2023-03-17T22:11:01.217Z,21.68
2023-03-17T22:13:30.169Z,21.67
2023-03-17T22:15:59.353Z,21.67
2023-03-17T22:18:25.953Z,21.68
2023-03-17T22:20:56.537Z,21.65
2023-03-17T22:23:25.563Z,21.67
2023-03-17T22:25:52.650Z,21.67
2023-03-17T22:28:19.551Z,21.68
2023-03-17T22:30:46.252Z,21.69
2023-03-17T22:33:14.473Z,21.69
2023-03-17T22:35:41.355Z,21.63
2023-03-17T22:38:13.077Z,21.68
2023-03-17T22:40:39.966Z,21.59
2023-03-17T22:43:07.236Z,21.68
2023-03-17T22:45:37.057Z,21.67
2023-03-17T22:48:04.176Z,21.56
2023-03-17T22:50:31.111Z,21.70
2023-03-17T22:52:57.895Z,21.61
2023-03-17T22:55:24.638Z,21.69
2023-03-17T22:57:51.551Z,21.68
2023-03-17T23:00:18.711Z,21.71
2023-03-17T23:02:46.399Z,21.41
2023-03-17T23:05:13.613Z,21.70
2023-03-17T23:07:50.418Z,21.68
2023-03-17T23:10:22.915Z,21.70
2023-03-17T23:12:50.775Z,21.70
2023-03-17T23:15:18.869Z,21.62
2023-03-17T23:17:46.226Z,21.52
2023-03-17T23:20:13.632Z,21.70
2023-03-17T23:22:41.297Z,21.69
2023-03-17T23:25:08.574Z,21.69
2023-03-17T23:27:35.282Z,21.69
2023-03-17T23:30:01.967Z,21.62
2023-03-17T23:32:28.976Z,21.68
2023-03-17T23:34:55.758Z,21.69
2023-03-17T23:37:22.441Z,21.38
2023-03-17T23:39:49.358Z,21.68
2023-03-17T23:42:17.341Z,21.68
2023-03-17T23:44:45.180Z,21.69
2023-03-17T23:47:12.141Z,21.68
2023-03-17T23:49:39.083Z,21.68
2023-03-17T23:52:05.958Z,21.58
2023-03-17T23:54:34.024Z,21.62
2023-03-17T23:57:01.074Z,21.66
2023-03-17T23:59:29.186Z,21.65
